sensor_id;sensor_type;location;lat;lon;timestamp;P1;durP1;ratioP1;P2;durP2;ratioP2
32186;SDS011;18686;53.084;8.872;2023-02-18T00:01:38;16.95;;;3.10;;
32186;SDS011;18686;53.084;8.872;2023-02-18T00:04:06;21.25;;;3.00;;
32186;SDS011;18686;53.084;8.872;2023-02-18T00:06:35;18.55;;;2.78;;
32186;SDS011;18686;53.084;8.872;2023-02-18T00:09:04;17.00;;;3.00;;
32186;SDS011;18686;53.084;8.872;2023-02-18T00:11:34;18.23;;;2.92;;
32186;SDS011;18686;53.084;8.872;2023-02-18T00:14:04;18.10;;;2.75;;
32186;SDS011;18686;53.084;8.872;2023-02-18T00:16:34;17.95;;;2.60;;
32186;SDS011;18686;53.084;8.872;2023-02-18T00:19:05;15.88;;;2.53;;
32186;SDS011;18686;53.084;8.872;2023-02-18T00:21:34;16.90;;;2.47;;
32186;SDS011;18686;53.084;8.872;2023-02-18T00:24:03;14.50;;;2.15;;
32186;SDS011;18686;53.084;8.872;2023-02-18T00:26:33;11.75;;;2.30;;
32186;SDS011;18686;53.084;8.872;2023-02-18T00:29:02;17.73;;;2.75;;
32186;SDS011;18686;53.084;8.872;2023-02-18T00:31:31;20.15;;;2.75;;
32186;SDS011;18686;53.084;8.872;2023-02-18T00:34:02;16.33;;;2.78;;
32186;SDS011;18686;53.084;8.872;2023-02-18T00:36:32;11.45;;;2.20;;
32186;SDS011;18686;53.084;8.872;2023-02-18T00:39:03;11.40;;;2.20;;
32186;SDS011;18686;53.084;8.872;2023-02-18T00:41:38;15.85;;;2.13;;
32186;SDS011;18686;53.084;8.872;2023-02-18T00:44:06;15.68;;;3.13;;
32186;SDS011;18686;53.084;8.872;2023-02-18T00:46:35;14.60;;;3.15;;
32186;SDS011;18686;53.084;8.872;2023-02-18T00:49:06;14.32;;;2.25;;
32186;SDS011;18686;53.084;8.872;2023-02-18T00:51:35;12.93;;;2.92;;
32186;SDS011;18686;53.084;8.872;2023-02-18T00:54:03;10.30;;;2.13;;
32186;SDS011;18686;53.084;8.872;2023-02-18T00:56:31;15.95;;;2.72;;
32186;SDS011;18686;53.084;8.872;2023-02-18T00:58:59;12.85;;;2.42;;
32186;SDS011;18686;53.084;8.872;2023-02-18T01:01:28;13.73;;;2.60;;
32186;SDS011;18686;53.084;8.872;2023-02-18T01:03:57;13.60;;;3.58;;
32186;SDS011;18686;53.084;8.872;2023-02-18T01:06:26;12.10;;;2.97;;
32186;SDS011;18686;53.084;8.872;2023-02-18T01:08:54;15.88;;;3.60;;
32186;SDS011;18686;53.084;8.872;2023-02-18T01:11:23;16.20;;;2.55;;
32186;SDS011;18686;53.084;8.872;2023-02-18T01:13:51;16.75;;;2.47;;
32186;SDS011;18686;53.084;8.872;2023-02-18T01:16:20;15.27;;;2.38;;
32186;SDS011;18686;53.084;8.872;2023-02-18T01:18:48;14.35;;;2.95;;
32186;SDS011;18686;53.084;8.872;2023-02-18T01:21:16;16.67;;;3.03;;
32186;SDS011;18686;53.084;8.872;2023-02-18T01:23:46;16.67;;;2.67;;
32186;SDS011;18686;53.084;8.872;2023-02-18T01:26:14;15.35;;;2.08;;
32186;SDS011;18686;53.084;8.872;2023-02-18T01:28:42;21.48;;;3.55;;
32186;SDS011;18686;53.084;8.872;2023-02-18T01:31:12;15.13;;;3.40;;
32186;SDS011;18686;53.084;8.872;2023-02-18T01:33:41;12.93;;;2.95;;
32186;SDS011;18686;53.084;8.872;2023-02-18T01:36:10;13.48;;;2.45;;
32186;SDS011;18686;53.084;8.872;2023-02-18T01:38:39;16.92;;;2.38;;
32186;SDS011;18686;53.084;8.872;2023-02-18T01:41:08;22.65;;;2.97;;
32186;SDS011;18686;53.084;8.872;2023-02-18T01:43:37;19.95;;;3.15;;
32186;SDS011;18686;53.084;8.872;2023-02-18T01:46:12;16.83;;;2.78;;
32186;SDS011;18686;53.084;8.872;2023-02-18T01:48:45;16.50;;;3.17;;
32186;SDS011;18686;53.084;8.872;2023-02-18T01:51:17;10.57;;;2.47;;
32186;SDS011;18686;53.084;8.872;2023-02-18T01:53:49;14.15;;;2.63;;
32186;SDS011;18686;53.084;8.872;2023-02-18T01:56:27;14.43;;;3.30;;
32186;SDS011;18686;53.084;8.872;2023-02-18T01:58:59;17.65;;;2.47;;
32186;SDS011;18686;53.084;8.872;2023-02-18T02:01:32;17.03;;;2.33;;
32186;SDS011;18686;53.084;8.872;2023-02-18T02:04:01;13.65;;;2.72;;
32186;SDS011;18686;53.084;8.872;2023-02-18T02:06:30;19.20;;;3.08;;
32186;SDS011;18686;53.084;8.872;2023-02-18T02:08:59;13.90;;;3.13;;
32186;SDS011;18686;53.084;8.872;2023-02-18T02:11:37;11.90;;;2.22;;
32186;SDS011;18686;53.084;8.872;2023-02-18T02:14:34;16.67;;;3.13;;
32186;SDS011;18686;53.084;8.872;2023-02-18T02:17:16;17.08;;;3.65;;
32186;SDS011;18686;53.084;8.872;2023-02-18T02:23:16;16.48;;;2.40;;
32186;SDS011;18686;53.084;8.872;2023-02-18T02:32:31;13.60;;;2.45;;
32186;SDS011;18686;53.084;8.872;2023-02-18T02:35:24;11.80;;;2.13;;
32186;SDS011;18686;53.084;8.872;2023-02-18T02:37:58;14.50;;;2.40;;
32186;SDS011;18686;53.084;8.872;2023-02-18T02:40:33;15.43;;;2.70;;
32186;SDS011;18686;53.084;8.872;2023-02-18T02:43:11;13.25;;;2.40;;
32186;SDS011;18686;53.084;8.872;2023-02-18T02:45:48;12.75;;;2.80;;
32186;SDS011;18686;53.084;8.872;2023-02-18T02:48:24;12.00;;;2.17;;
32186;SDS011;18686;53.084;8.872;2023-02-18T02:51:05;10.85;;;2.13;;
32186;SDS011;18686;53.084;8.872;2023-02-18T02:53:39;17.40;;;2.42;;
32186;SDS011;18686;53.084;8.872;2023-02-18T02:56:10;19.50;;;2.60;;
32186;SDS011;18686;53.084;8.872;2023-02-18T02:58:41;17.40;;;2.40;;
32186;SDS011;18686;53.084;8.872;2023-02-18T03:01:15;13.18;;;2.00;;
32186;SDS011;18686;53.084;8.872;2023-02-18T03:03:53;13.70;;;2.53;;
32186;SDS011;18686;53.084;8.872;2023-02-18T03:06:44;15.05;;;2.85;;
32186;SDS011;18686;53.084;8.872;2023-02-18T03:09:26;11.30;;;2.25;;
32186;SDS011;18686;53.084;8.872;2023-02-18T03:12:04;17.33;;;3.03;;
32186;SDS011;18686;53.084;8.872;2023-02-18T03:14:40;11.48;;;2.15;;
32186;SDS011;18686;53.084;8.872;2023-02-18T03:17:15;12.23;;;1.95;;
32186;SDS011;18686;53.084;8.872;2023-02-18T03:19:52;9.52;;;2.20;;
32186;SDS011;18686;53.084;8.872;2023-02-18T03:22:26;10.98;;;2.53;;
32186;SDS011;18686;53.084;8.872;2023-02-18T03:24:59;15.30;;;2.45;;
32186;SDS011;18686;53.084;8.872;2023-02-18T03:27:31;11.18;;;2.53;;
32186;SDS011;18686;53.084;8.872;2023-02-18T03:30:02;13.77;;;2.58;;
32186;SDS011;18686;53.084;8.872;2023-02-18T03:32:37;14.75;;;2.25;;
32186;SDS011;18686;53.084;8.872;2023-02-18T03:35:06;13.05;;;2.03;;
32186;SDS011;18686;53.084;8.872;2023-02-18T03:37:41;10.95;;;1.83;;
32186;SDS011;18686;53.084;8.872;2023-02-18T03:40:14;17.02;;;2.22;;
32186;SDS011;18686;53.084;8.872;2023-02-18T03:42:44;8.40;;;2.08;;
32186;SDS011;18686;53.084;8.872;2023-02-18T03:45:12;12.95;;;2.75;;
32186;SDS011;18686;53.084;8.872;2023-02-18T03:47:40;13.40;;;2.13;;
32186;SDS011;18686;53.084;8.872;2023-02-18T03:50:09;14.20;;;2.17;;
32186;SDS011;18686;53.084;8.872;2023-02-18T03:52:38;10.15;;;1.95;;
32186;SDS011;18686;53.084;8.872;2023-02-18T03:55:07;12.98;;;2.17;;
32186;SDS011;18686;53.084;8.872;2023-02-18T03:57:36;8.30;;;1.90;;
32186;SDS011;18686;53.084;8.872;2023-02-18T04:00:05;6.20;;;1.75;;
32186;SDS011;18686;53.084;8.872;2023-02-18T04:02:41;12.60;;;2.38;;
32186;SDS011;18686;53.084;8.872;2023-02-18T04:05:09;8.45;;;1.80;;
32186;SDS011;18686;53.084;8.872;2023-02-18T04:07:39;18.17;;;1.98;;
32186;SDS011;18686;53.084;8.872;2023-02-18T04:10:07;12.80;;;2.28;;
32186;SDS011;18686;53.084;8.872;2023-02-18T04:12:36;9.18;;;1.73;;
32186;SDS011;18686;53.084;8.872;2023-02-18T04:15:04;13.15;;;2.35;;
32186;SDS011;18686;53.084;8.872;2023-02-18T04:17:33;12.23;;;1.77;;
32186;SDS011;18686;53.084;8.872;2023-02-18T04:20:01;8.50;;;2.00;;
32186;SDS011;18686;53.084;8.872;2023-02-18T04:22:30;17.15;;;2.50;;
32186;SDS011;18686;53.084;8.872;2023-02-18T04:24:59;14.73;;;2.15;;
32186;SDS011;18686;53.084;8.872;2023-02-18T04:27:27;18.17;;;3.15;;
32186;SDS011;18686;53.084;8.872;2023-02-18T04:29:56;19.38;;;2.45;;
32186;SDS011;18686;53.084;8.872;2023-02-18T04:32:24;12.00;;;1.90;;
32186;SDS011;18686;53.084;8.872;2023-02-18T04:34:52;11.55;;;1.95;;
32186;SDS011;18686;53.084;8.872;2023-02-18T04:37:20;19.52;;;2.85;;
32186;SDS011;18686;53.084;8.872;2023-02-18T04:39:49;12.68;;;2.22;;
32186;SDS011;18686;53.084;8.872;2023-02-18T04:42:18;14.23;;;2.05;;
32186;SDS011;18686;53.084;8.872;2023-02-18T04:44:47;15.95;;;2.90;;
32186;SDS011;18686;53.084;8.872;2023-02-18T04:47:15;10.43;;;1.98;;
32186;SDS011;18686;53.084;8.872;2023-02-18T04:49:43;10.32;;;2.10;;
32186;SDS011;18686;53.084;8.872;2023-02-18T04:52:11;14.68;;;2.65;;
32186;SDS011;18686;53.084;8.872;2023-02-18T04:54:40;14.60;;;2.50;;
32186;SDS011;18686;53.084;8.872;2023-02-18T04:57:08;14.60;;;2.00;;
32186;SDS011;18686;53.084;8.872;2023-02-18T04:59:38;16.45;;;2.08;;
32186;SDS011;18686;53.084;8.872;2023-02-18T05:02:06;21.95;;;2.78;;
32186;SDS011;18686;53.084;8.872;2023-02-18T05:04:35;14.23;;;2.05;;
32186;SDS011;18686;53.084;8.872;2023-02-18T05:07:03;19.48;;;2.65;;
32186;SDS011;18686;53.084;8.872;2023-02-18T05:09:31;13.60;;;2.70;;
32186;SDS011;18686;53.084;8.872;2023-02-18T05:11:59;15.88;;;2.53;;
32186;SDS011;18686;53.084;8.872;2023-02-18T05:14:28;9.00;;;2.15;;
32186;SDS011;18686;53.084;8.872;2023-02-18T05:16:57;16.15;;;2.83;;
32186;SDS011;18686;53.084;8.872;2023-02-18T05:19:25;12.32;;;2.30;;
32186;SDS011;18686;53.084;8.872;2023-02-18T05:21:54;9.05;;;1.80;;
32186;SDS011;18686;53.084;8.872;2023-02-18T05:24:22;11.90;;;2.88;;
32186;SDS011;18686;53.084;8.872;2023-02-18T05:26:50;18.40;;;2.28;;
32186;SDS011;18686;53.084;8.872;2023-02-18T05:29:19;18.58;;;2.40;;
32186;SDS011;18686;53.084;8.872;2023-02-18T05:31:47;13.07;;;2.10;;
32186;SDS011;18686;53.084;8.872;2023-02-18T05:34:17;19.30;;;2.03;;
32186;SDS011;18686;53.084;8.872;2023-02-18T05:36:45;10.65;;;1.88;;
32186;SDS011;18686;53.084;8.872;2023-02-18T05:39:13;12.65;;;1.95;;
32186;SDS011;18686;53.084;8.872;2023-02-18T05:41:41;11.07;;;1.77;;
32186;SDS011;18686;53.084;8.872;2023-02-18T05:44:09;9.90;;;1.90;;
32186;SDS011;18686;53.084;8.872;2023-02-18T05:46:55;11.73;;;1.90;;
32186;SDS011;18686;53.084;8.872;2023-02-18T05:49:25;12.27;;;2.40;;
32186;SDS011;18686;53.084;8.872;2023-02-18T05:51:54;10.93;;;2.00;;
32186;SDS011;18686;53.084;8.872;2023-02-18T05:54:22;18.85;;;2.63;;
32186;SDS011;18686;53.084;8.872;2023-02-18T05:56:53;12.65;;;2.63;;
32186;SDS011;18686;53.084;8.872;2023-02-18T05:59:22;13.30;;;2.15;;
32186;SDS011;18686;53.084;8.872;2023-02-18T06:01:51;14.15;;;2.65;;
32186;SDS011;18686;53.084;8.872;2023-02-18T06:04:19;12.65;;;2.55;;
32186;SDS011;18686;53.084;8.872;2023-02-18T06:06:48;12.05;;;2.40;;
32186;SDS011;18686;53.084;8.872;2023-02-18T06:09:17;15.77;;;3.15;;
32186;SDS011;18686;53.084;8.872;2023-02-18T06:11:45;11.77;;;3.10;;
32186;SDS011;18686;53.084;8.872;2023-02-18T06:14:13;17.33;;;3.88;;
32186;SDS011;18686;53.084;8.872;2023-02-18T06:16:42;17.58;;;3.92;;
32186;SDS011;18686;53.084;8.872;2023-02-18T06:19:10;15.63;;;3.47;;
32186;SDS011;18686;53.084;8.872;2023-02-18T06:21:38;11.75;;;2.85;;
32186;SDS011;18686;53.084;8.872;2023-02-18T06:24:08;14.27;;;2.67;;
32186;SDS011;18686;53.084;8.872;2023-02-18T06:26:36;10.18;;;2.63;;
32186;SDS011;18686;53.084;8.872;2023-02-18T06:29:05;11.38;;;2.75;;
32186;SDS011;18686;53.084;8.872;2023-02-18T06:31:33;12.15;;;3.20;;
32186;SDS011;18686;53.084;8.872;2023-02-18T06:34:01;15.07;;;3.58;;
32186;SDS011;18686;53.084;8.872;2023-02-18T06:36:30;11.32;;;3.45;;
32186;SDS011;18686;53.084;8.872;2023-02-18T06:38:58;10.45;;;3.05;;
32186;SDS011;18686;53.084;8.872;2023-02-18T06:41:30;19.00;;;4.47;;
32186;SDS011;18686;53.084;8.872;2023-02-18T06:43:59;13.63;;;4.28;;
32186;SDS011;18686;53.084;8.872;2023-02-18T06:46:27;15.43;;;4.85;;
32186;SDS011;18686;53.084;8.872;2023-02-18T06:48:55;19.92;;;5.00;;
32186;SDS011;18686;53.084;8.872;2023-02-18T06:51:23;16.70;;;5.25;;
32186;SDS011;18686;53.084;8.872;2023-02-18T06:53:52;25.23;;;7.05;;
32186;SDS011;18686;53.084;8.872;2023-02-18T06:56:20;16.30;;;5.60;;
32186;SDS011;18686;53.084;8.872;2023-02-18T06:58:50;21.45;;;7.70;;
32186;SDS011;18686;53.084;8.872;2023-02-18T07:01:18;21.50;;;6.95;;
32186;SDS011;18686;53.084;8.872;2023-02-18T07:03:47;28.98;;;9.15;;
32186;SDS011;18686;53.084;8.872;2023-02-18T07:06:15;18.98;;;8.43;;
32186;SDS011;18686;53.084;8.872;2023-02-18T07:08:44;23.90;;;9.73;;
32186;SDS011;18686;53.084;8.872;2023-02-18T07:11:13;23.98;;;10.38;;
32186;SDS011;18686;53.084;8.872;2023-02-18T07:13:41;20.05;;;9.68;;
32186;SDS011;18686;53.084;8.872;2023-02-18T07:16:11;17.50;;;9.18;;
32186;SDS011;18686;53.084;8.872;2023-02-18T07:18:39;21.33;;;10.63;;
32186;SDS011;18686;53.084;8.872;2023-02-18T07:21:08;23.63;;;11.57;;
32186;SDS011;18686;53.084;8.872;2023-02-18T07:23:36;26.55;;;11.45;;
32186;SDS011;18686;53.084;8.872;2023-02-18T07:26:06;32.72;;;13.30;;
32186;SDS011;18686;53.084;8.872;2023-02-18T07:28:36;27.70;;;13.15;;
32186;SDS011;18686;53.084;8.872;2023-02-18T07:31:05;26.13;;;12.20;;
32186;SDS011;18686;53.084;8.872;2023-02-18T07:33:35;26.83;;;13.55;;
32186;SDS011;18686;53.084;8.872;2023-02-18T07:36:04;31.20;;;15.93;;
32186;SDS011;18686;53.084;8.872;2023-02-18T07:38:33;28.52;;;15.15;;
32186;SDS011;18686;53.084;8.872;2023-02-18T07:41:01;31.20;;;15.75;;
32186;SDS011;18686;53.084;8.872;2023-02-18T07:43:30;37.80;;;16.90;;
32186;SDS011;18686;53.084;8.872;2023-02-18T07:45:58;45.97;;;19.85;;
32186;SDS011;18686;53.084;8.872;2023-02-18T07:48:26;52.03;;;20.42;;
32186;SDS011;18686;53.084;8.872;2023-02-18T07:50:56;48.92;;;21.33;;
32186;SDS011;18686;53.084;8.872;2023-02-18T07:53:24;60.72;;;23.73;;
32186;SDS011;18686;53.084;8.872;2023-02-18T07:55:53;57.72;;;23.55;;
32186;SDS011;18686;53.084;8.872;2023-02-18T07:58:22;61.47;;;24.77;;
32186;SDS011;18686;53.084;8.872;2023-02-18T08:00:53;64.75;;;25.55;;
32186;SDS011;18686;53.084;8.872;2023-02-18T08:03:22;68.53;;;25.50;;
32186;SDS011;18686;53.084;8.872;2023-02-18T08:05:53;72.78;;;26.05;;
32186;SDS011;18686;53.084;8.872;2023-02-18T08:08:23;62.92;;;24.98;;
32186;SDS011;18686;53.084;8.872;2023-02-18T08:10:54;74.00;;;27.38;;
32186;SDS011;18686;53.084;8.872;2023-02-18T08:13:26;83.83;;;28.57;;
32186;SDS011;18686;53.084;8.872;2023-02-18T08:15:55;86.30;;;29.75;;
32186;SDS011;18686;53.084;8.872;2023-02-18T08:18:24;93.97;;;32.33;;
32186;SDS011;18686;53.084;8.872;2023-02-18T08:20:53;94.32;;;32.08;;
32186;SDS011;18686;53.084;8.872;2023-02-18T08:23:41;102.28;;;33.92;;
32186;SDS011;18686;53.084;8.872;2023-02-18T08:26:09;106.63;;;33.95;;
32186;SDS011;18686;53.084;8.872;2023-02-18T08:28:40;106.05;;;33.25;;
32186;SDS011;18686;53.084;8.872;2023-02-18T08:31:14;110.82;;;34.03;;
32186;SDS011;18686;53.084;8.872;2023-02-18T08:33:45;113.43;;;33.47;;
32186;SDS011;18686;53.084;8.872;2023-02-18T08:36:14;114.57;;;32.63;;
32186;SDS011;18686;53.084;8.872;2023-02-18T08:38:44;96.65;;;28.10;;
32186;SDS011;18686;53.084;8.872;2023-02-18T08:41:12;98.22;;;28.98;;
32186;SDS011;18686;53.084;8.872;2023-02-18T08:43:41;98.82;;;26.83;;
32186;SDS011;18686;53.084;8.872;2023-02-18T08:46:09;87.97;;;25.05;;
32186;SDS011;18686;53.084;8.872;2023-02-18T08:48:50;81.75;;;24.35;;
32186;SDS011;18686;53.084;8.872;2023-02-18T08:51:20;83.78;;;23.33;;
32186;SDS011;18686;53.084;8.872;2023-02-18T08:53:50;81.80;;;23.90;;
32186;SDS011;18686;53.084;8.872;2023-02-18T08:56:18;73.15;;;21.45;;
32186;SDS011;18686;53.084;8.872;2023-02-18T08:58:47;73.25;;;21.13;;
32186;SDS011;18686;53.084;8.872;2023-02-18T09:01:15;62.53;;;18.85;;
32186;SDS011;18686;53.084;8.872;2023-02-18T09:03:43;52.55;;;17.48;;
32186;SDS011;18686;53.084;8.872;2023-02-18T09:06:12;50.63;;;17.63;;
32186;SDS011;18686;53.084;8.872;2023-02-18T09:08:40;51.55;;;16.05;;
32186;SDS011;18686;53.084;8.872;2023-02-18T09:11:10;40.78;;;14.02;;
32186;SDS011;18686;53.084;8.872;2023-02-18T09:13:39;49.30;;;15.05;;
32186;SDS011;18686;53.084;8.872;2023-02-18T09:16:09;30.08;;;11.93;;
32186;SDS011;18686;53.084;8.872;2023-02-18T09:18:39;33.83;;;13.55;;
32186;SDS011;18686;53.084;8.872;2023-02-18T09:21:08;31.42;;;12.40;;
32186;SDS011;18686;53.084;8.872;2023-02-18T09:23:39;30.85;;;11.73;;
32186;SDS011;18686;53.084;8.872;2023-02-18T09:26:11;27.33;;;10.82;;
32186;SDS011;18686;53.084;8.872;2023-02-18T09:28:41;21.23;;;9.60;;
32186;SDS011;18686;53.084;8.872;2023-02-18T09:31:11;22.17;;;9.85;;
32186;SDS011;18686;53.084;8.872;2023-02-18T09:33:42;21.50;;;9.75;;
32186;SDS011;18686;53.084;8.872;2023-02-18T09:36:12;18.50;;;9.80;;
32186;SDS011;18686;53.084;8.872;2023-02-18T09:38:41;16.48;;;9.55;;
32186;SDS011;18686;53.084;8.872;2023-02-18T09:41:13;17.48;;;9.95;;
32186;SDS011;18686;53.084;8.872;2023-02-18T09:43:54;15.77;;;9.15;;
32186;SDS011;18686;53.084;8.872;2023-02-18T09:46:27;15.38;;;8.73;;
32186;SDS011;18686;53.084;8.872;2023-02-18T09:49:00;13.68;;;8.52;;
32186;SDS011;18686;53.084;8.872;2023-02-18T09:51:30;13.98;;;8.35;;
32186;SDS011;18686;53.084;8.872;2023-02-18T09:53:58;16.42;;;9.10;;
32186;SDS011;18686;53.084;8.872;2023-02-18T09:56:29;16.13;;;9.40;;
32186;SDS011;18686;53.084;8.872;2023-02-18T09:59:02;15.73;;;9.38;;
32186;SDS011;18686;53.084;8.872;2023-02-18T10:01:36;14.48;;;8.65;;
32186;SDS011;18686;53.084;8.872;2023-02-18T10:04:09;14.77;;;9.32;;
32186;SDS011;18686;53.084;8.872;2023-02-18T10:06:42;15.88;;;9.05;;
32186;SDS011;18686;53.084;8.872;2023-02-18T10:09:15;14.60;;;9.23;;
32186;SDS011;18686;53.084;8.872;2023-02-18T10:11:53;14.52;;;8.82;;
32186;SDS011;18686;53.084;8.872;2023-02-18T10:14:23;16.37;;;8.33;;
32186;SDS011;18686;53.084;8.872;2023-02-18T10:16:53;17.90;;;8.75;;
32186;SDS011;18686;53.084;8.872;2023-02-18T10:19:22;16.20;;;8.60;;
32186;SDS011;18686;53.084;8.872;2023-02-18T10:21:54;16.00;;;8.77;;
32186;SDS011;18686;53.084;8.872;2023-02-18T10:24:25;15.00;;;8.68;;
32186;SDS011;18686;53.084;8.872;2023-02-18T10:26:58;15.10;;;8.80;;
32186;SDS011;18686;53.084;8.872;2023-02-18T10:29:27;16.55;;;8.80;;
32186;SDS011;18686;53.084;8.872;2023-02-18T10:31:58;15.80;;;8.73;;
32186;SDS011;18686;53.084;8.872;2023-02-18T10:34:37;18.80;;;9.63;;
32186;SDS011;18686;53.084;8.872;2023-02-18T10:37:12;17.88;;;9.48;;
32186;SDS011;18686;53.084;8.872;2023-02-18T10:40:03;14.68;;;8.70;;
32186;SDS011;18686;53.084;8.872;2023-02-18T10:42:41;21.23;;;9.13;;
32186;SDS011;18686;53.084;8.872;2023-02-18T10:45:23;17.05;;;8.77;;
32186;SDS011;18686;53.084;8.872;2023-02-18T10:48:07;22.45;;;8.15;;
32186;SDS011;18686;53.084;8.872;2023-02-18T10:50:51;20.15;;;8.30;;
32186;SDS011;18686;53.084;8.872;2023-02-18T10:53:21;17.33;;;8.52;;
32186;SDS011;18686;53.084;8.872;2023-02-18T10:55:56;20.33;;;8.80;;
32186;SDS011;18686;53.084;8.872;2023-02-18T10:58:27;14.43;;;7.40;;
32186;SDS011;18686;53.084;8.872;2023-02-18T11:00:58;15.07;;;7.75;;
32186;SDS011;18686;53.084;8.872;2023-02-18T11:03:40;12.65;;;7.35;;
32186;SDS011;18686;53.084;8.872;2023-02-18T11:06:19;16.10;;;7.88;;
32186;SDS011;18686;53.084;8.872;2023-02-18T11:08:49;20.50;;;7.28;;
32186;SDS011;18686;53.084;8.872;2023-02-18T11:11:22;14.15;;;6.65;;
32186;SDS011;18686;53.084;8.872;2023-02-18T11:13:53;10.60;;;5.95;;
32186;SDS011;18686;53.084;8.872;2023-02-18T11:16:23;15.82;;;5.45;;
32186;SDS011;18686;53.084;8.872;2023-02-18T11:19:04;11.90;;;5.55;;
32186;SDS011;18686;53.084;8.872;2023-02-18T11:21:34;9.20;;;5.20;;
32186;SDS011;18686;53.084;8.872;2023-02-18T11:24:05;8.45;;;4.70;;
32186;SDS011;18686;53.084;8.872;2023-02-18T11:26:36;6.75;;;4.38;;
32186;SDS011;18686;53.084;8.872;2023-02-18T11:29:12;10.65;;;4.35;;
32186;SDS011;18686;53.084;8.872;2023-02-18T11:31:47;11.38;;;4.50;;
32186;SDS011;18686;53.084;8.872;2023-02-18T11:34:18;7.22;;;4.20;;
32186;SDS011;18686;53.084;8.872;2023-02-18T11:36:49;7.45;;;3.65;;
32186;SDS011;18686;53.084;8.872;2023-02-18T11:39:19;7.85;;;3.65;;
32186;SDS011;18686;53.084;8.872;2023-02-18T11:41:53;7.25;;;3.28;;
32186;SDS011;18686;53.084;8.872;2023-02-18T11:44:26;6.30;;;3.05;;
32186;SDS011;18686;53.084;8.872;2023-02-18T11:46:57;4.70;;;3.10;;
32186;SDS011;18686;53.084;8.872;2023-02-18T11:49:28;7.78;;;3.40;;
32186;SDS011;18686;53.084;8.872;2023-02-18T11:52:02;6.15;;;3.08;;
32186;SDS011;18686;53.084;8.872;2023-02-18T11:54:57;6.13;;;2.90;;
32186;SDS011;18686;53.084;8.872;2023-02-18T11:57:28;7.22;;;3.28;;
32186;SDS011;18686;53.084;8.872;2023-02-18T11:59:58;6.78;;;3.47;;
32186;SDS011;18686;53.084;8.872;2023-02-18T12:02:34;6.60;;;2.95;;
32186;SDS011;18686;53.084;8.872;2023-02-18T12:05:08;7.47;;;3.75;;
32186;SDS011;18686;53.084;8.872;2023-02-18T12:07:42;6.20;;;3.60;;
32186;SDS011;18686;53.084;8.872;2023-02-18T12:10:13;7.78;;;3.70;;
32186;SDS011;18686;53.084;8.872;2023-02-18T12:12:49;8.35;;;3.65;;
32186;SDS011;18686;53.084;8.872;2023-02-18T12:15:23;7.05;;;3.92;;
32186;SDS011;18686;53.084;8.872;2023-02-18T12:18:00;15.00;;;4.88;;
32186;SDS011;18686;53.084;8.872;2023-02-18T12:20:55;12.00;;;4.47;;
32186;SDS011;18686;53.084;8.872;2023-02-18T12:23:45;12.25;;;5.25;;
32186;SDS011;18686;53.084;8.872;2023-02-18T12:26:24;19.23;;;5.18;;
32186;SDS011;18686;53.084;8.872;2023-02-18T12:28:59;12.57;;;4.65;;
32186;SDS011;18686;53.084;8.872;2023-02-18T12:31:39;12.05;;;4.90;;
32186;SDS011;18686;53.084;8.872;2023-02-18T12:34:27;20.13;;;5.82;;
32186;SDS011;18686;53.084;8.872;2023-02-18T12:39:48;20.55;;;5.68;;
32186;SDS011;18686;53.084;8.872;2023-02-18T12:42:30;24.23;;;6.40;;
32186;SDS011;18686;53.084;8.872;2023-02-18T12:45:19;15.77;;;6.10;;
32186;SDS011;18686;53.084;8.872;2023-02-18T12:48:26;20.00;;;6.30;;
32186;SDS011;18686;53.084;8.872;2023-02-18T12:51:10;15.35;;;5.45;;
32186;SDS011;18686;53.084;8.872;2023-02-18T12:54:06;17.52;;;5.82;;
32186;SDS011;18686;53.084;8.872;2023-02-18T12:56:53;17.42;;;5.50;;
32186;SDS011;18686;53.084;8.872;2023-02-18T12:59:39;16.73;;;5.57;;
32186;SDS011;18686;53.084;8.872;2023-02-18T13:02:31;17.38;;;5.60;;
32186;SDS011;18686;53.084;8.872;2023-02-18T13:05:21;15.50;;;5.60;;
32186;SDS011;18686;53.084;8.872;2023-02-18T13:08:01;24.25;;;6.50;;
32186;SDS011;18686;53.084;8.872;2023-02-18T13:13:40;13.68;;;5.75;;
32186;SDS011;18686;53.084;8.872;2023-02-18T13:18:46;27.08;;;6.07;;
32186;SDS011;18686;53.084;8.872;2023-02-18T13:21:24;22.60;;;6.82;;
32186;SDS011;18686;53.084;8.872;2023-02-18T13:23:55;23.48;;;6.43;;
32186;SDS011;18686;53.084;8.872;2023-02-18T13:26:26;34.08;;;6.75;;
32186;SDS011;18686;53.084;8.872;2023-02-18T13:29:02;31.67;;;6.35;;
32186;SDS011;18686;53.084;8.872;2023-02-18T13:31:45;25.67;;;6.75;;
32186;SDS011;18686;53.084;8.872;2023-02-18T13:34:24;30.77;;;6.32;;
32186;SDS011;18686;53.084;8.872;2023-02-18T13:37:02;33.85;;;7.15;;
32186;SDS011;18686;53.084;8.872;2023-02-18T13:39:38;31.52;;;6.25;;
32186;SDS011;18686;53.084;8.872;2023-02-18T13:42:32;30.88;;;6.90;;
32186;SDS011;18686;53.084;8.872;2023-02-18T13:45:06;29.02;;;5.57;;
32186;SDS011;18686;53.084;8.872;2023-02-18T13:47:52;25.40;;;5.68;;
32186;SDS011;18686;53.084;8.872;2023-02-18T13:50:23;28.52;;;5.15;;
32186;SDS011;18686;53.084;8.872;2023-02-18T13:53:24;24.00;;;5.22;;
32186;SDS011;18686;53.084;8.872;2023-02-18T13:55:56;30.98;;;5.18;;
32186;SDS011;18686;53.084;8.872;2023-02-18T13:58:29;21.30;;;4.80;;
32186;SDS011;18686;53.084;8.872;2023-02-18T14:01:03;37.50;;;5.32;;
32186;SDS011;18686;53.084;8.872;2023-02-18T14:03:36;33.35;;;5.13;;
32186;SDS011;18686;53.084;8.872;2023-02-18T14:06:18;31.08;;;5.07;;
32186;SDS011;18686;53.084;8.872;2023-02-18T14:08:49;37.45;;;5.70;;
32186;SDS011;18686;53.084;8.872;2023-02-18T14:11:32;33.95;;;5.32;;
32186;SDS011;18686;53.084;8.872;2023-02-18T14:17:22;35.03;;;6.05;;
32186;SDS011;18686;53.084;8.872;2023-02-18T14:26:28;38.00;;;6.43;;
32186;SDS011;18686;53.084;8.872;2023-02-18T14:29:05;34.60;;;4.57;;
32186;SDS011;18686;53.084;8.872;2023-02-18T14:31:49;43.60;;;5.75;;
32186;SDS011;18686;53.084;8.872;2023-02-18T14:40:54;37.13;;;6.50;;
32186;SDS011;18686;53.084;8.872;2023-02-18T14:43:45;31.13;;;5.15;;
32186;SDS011;18686;53.084;8.872;2023-02-18T14:46:31;36.25;;;5.78;;
32186;SDS011;18686;53.084;8.872;2023-02-18T14:49:14;39.63;;;4.35;;
32186;SDS011;18686;53.084;8.872;2023-02-18T14:51:58;33.90;;;5.22;;
32186;SDS011;18686;53.084;8.872;2023-02-18T14:54:27;45.17;;;5.68;;
32186;SDS011;18686;53.084;8.872;2023-02-18T14:56:58;44.25;;;5.60;;
32186;SDS011;18686;53.084;8.872;2023-02-18T14:59:30;31.67;;;4.47;;
32186;SDS011;18686;53.084;8.872;2023-02-18T15:04:30;35.40;;;3.88;;
32186;SDS011;18686;53.084;8.872;2023-02-18T15:06:59;37.88;;;3.72;;
32186;SDS011;18686;53.084;8.872;2023-02-18T15:09:29;30.15;;;3.58;;
32186;SDS011;18686;53.084;8.872;2023-02-18T15:11:58;31.23;;;3.88;;
32186;SDS011;18686;53.084;8.872;2023-02-18T15:14:32;26.02;;;3.58;;
32186;SDS011;18686;53.084;8.872;2023-02-18T15:17:02;20.77;;;3.50;;
32186;SDS011;18686;53.084;8.872;2023-02-18T15:19:34;33.05;;;4.05;;
32186;SDS011;18686;53.084;8.872;2023-02-18T15:22:12;32.53;;;3.42;;
32186;SDS011;18686;53.084;8.872;2023-02-18T15:24:43;39.95;;;4.45;;
32186;SDS011;18686;53.084;8.872;2023-02-18T15:27:13;27.27;;;3.10;;
32186;SDS011;18686;53.084;8.872;2023-02-18T15:29:47;22.77;;;2.92;;
32186;SDS011;18686;53.084;8.872;2023-02-18T15:32:17;25.42;;;4.32;;
32186;SDS011;18686;53.084;8.872;2023-02-18T15:34:49;34.20;;;4.22;;
32186;SDS011;18686;53.084;8.872;2023-02-18T15:37:18;28.13;;;4.22;;
32186;SDS011;18686;53.084;8.872;2023-02-18T15:39:46;32.13;;;4.15;;
32186;SDS011;18686;53.084;8.872;2023-02-18T15:42:18;23.38;;;3.20;;